createdAt,value
2019-05-16T00:01:11.399Z,2.50
2019-05-16T00:03:44.815Z,2.20
2019-05-16T00:06:18.240Z,2.30
2019-05-16T00:08:51.654Z,2.23
2019-05-16T00:11:25.083Z,2.50
2019-05-16T00:13:58.499Z,2.83
2019-05-16T00:16:31.935Z,2.40
2019-05-16T00:19:05.358Z,2.40
2019-05-16T00:21:38.803Z,2.30
2019-05-16T00:24:12.224Z,2.50
2019-05-16T00:26:47.855Z,2.67
2019-05-16T00:29:20.809Z,2.60
2019-05-16T00:31:54.237Z,2.50
2019-05-16T00:34:28.031Z,2.50
2019-05-16T00:37:01.662Z,2.50
2019-05-16T00:39:35.076Z,2.43
2019-05-16T00:42:08.939Z,2.43
2019-05-16T00:44:42.500Z,2.70
2019-05-16T00:47:17.873Z,2.33
2019-05-16T00:49:51.129Z,2.60
2019-05-16T00:52:24.558Z,2.53
2019-05-16T00:54:58.094Z,2.57
2019-05-16T00:57:32.043Z,2.60
2019-05-16T01:00:08.348Z,2.40
2019-05-16T01:02:41.779Z,2.43
2019-05-16T01:05:15.187Z,2.40
2019-05-16T01:07:48.627Z,2.40
2019-05-16T01:10:22.040Z,2.30
2019-05-16T01:12:55.474Z,2.27
2019-05-16T01:15:28.880Z,2.40
2019-05-16T01:18:02.311Z,2.40
2019-05-16T01:20:38.450Z,2.70
2019-05-16T01:23:11.212Z,2.70
2019-05-16T01:25:44.627Z,2.43
2019-05-16T01:28:18.631Z,2.47
2019-05-16T01:30:52.047Z,2.43
2019-05-16T01:33:25.485Z,2.50
2019-05-16T01:35:58.892Z,3.00
2019-05-16T01:38:32.316Z,2.53
2019-05-16T01:41:05.736Z,2.60
2019-05-16T01:43:39.161Z,2.73
2019-05-16T01:46:12.596Z,3.07
2019-05-16T01:48:48.274Z,2.53
2019-05-16T01:51:21.160Z,2.90
2019-05-16T01:53:54.585Z,2.80
2019-05-16T01:56:28.156Z,2.83
2019-05-16T01:59:01.855Z,3.00
2019-05-16T02:01:37.689Z,2.80
2019-05-16T02:04:12.197Z,2.70
2019-05-16T02:06:51.788Z,2.50
2019-05-16T02:09:21.167Z,2.70
2019-05-16T02:11:54.596Z,2.80
2019-05-16T02:14:28.357Z,2.77
2019-05-16T02:17:01.911Z,2.60
2019-05-16T02:19:35.333Z,2.20
2019-05-16T02:22:09.028Z,2.33
2019-05-16T02:24:43.023Z,2.43
2019-05-16T02:27:18.227Z,2.27
2019-05-16T02:29:51.587Z,2.33
2019-05-16T02:32:25.003Z,2.53
2019-05-16T02:35:01.206Z,2.33
2019-05-16T02:37:35.061Z,2.50
2019-05-16T02:40:12.014Z,2.73
2019-05-16T02:42:45.376Z,2.80
2019-05-16T02:45:23.916Z,2.70
2019-05-16T02:47:54.485Z,2.40
2019-05-16T02:50:31.264Z,2.97
2019-05-16T02:53:03.071Z,2.60
2019-05-16T02:55:36.492Z,2.30
2019-05-16T02:58:11.502Z,2.20
2019-05-16T03:00:45.140Z,2.40
2019-05-16T03:03:21.278Z,2.30
2019-05-16T03:05:55.309Z,2.40
2019-05-16T03:08:32.020Z,2.10
2019-05-16T03:11:04.435Z,2.30
2019-05-16T03:13:42.190Z,2.50
2019-05-16T03:16:15.660Z,2.50
2019-05-16T03:18:51.687Z,2.03
2019-05-16T03:21:26.502Z,2.43
2019-05-16T03:24:00.902Z,2.57
2019-05-16T03:26:36.402Z,2.40
2019-05-16T03:29:11.353Z,2.70
2019-05-16T03:31:45.573Z,2.57
2019-05-16T03:34:25.637Z,2.90
2019-05-16T03:36:55.109Z,2.30
2019-05-16T03:39:31.373Z,3.40
2019-05-16T03:42:03.970Z,3.90
2019-05-16T03:44:40.855Z,3.23
2019-05-16T03:47:12.630Z,3.20
2019-05-16T03:49:46.056Z,2.90
2019-05-16T03:52:20.761Z,3.17
2019-05-16T03:54:54.388Z,3.20
2019-05-16T03:57:30.463Z,3.00
2019-05-16T04:00:04.315Z,3.00
2019-05-16T04:02:44.894Z,2.73
2019-05-16T04:05:12.954Z,3.10
2019-05-16T04:07:46.363Z,3.10
2019-05-16T04:10:21.559Z,3.07
2019-05-16T04:12:54.924Z,3.00
2019-05-16T04:15:31.165Z,3.20
2019-05-16T04:18:03.500Z,2.90
2019-05-16T04:20:40.629Z,3.10
2019-05-16T04:23:13.623Z,6.10
2019-05-16T04:25:47.052Z,3.20
2019-05-16T04:28:22.083Z,2.97
2019-05-16T04:30:55.856Z,2.60
2019-05-16T04:33:30.952Z,2.60
2019-05-16T04:36:04.436Z,3.20
2019-05-16T04:38:42.833Z,2.90
2019-05-16T04:41:13.003Z,2.90
2019-05-16T04:43:46.479Z,2.50
2019-05-16T04:46:21.292Z,2.70
2019-05-16T04:48:55.052Z,2.43
2019-05-16T04:51:30.614Z,2.50
2019-05-16T04:54:07.149Z,2.47
2019-05-16T04:56:41.252Z,2.30
2019-05-16T04:59:16.481Z,4.33
2019-05-16T05:01:51.178Z,2.60
2019-05-16T05:04:24.296Z,1.80
2019-05-16T05:07:00.300Z,1.83
2019-05-16T05:09:32.868Z,1.83
2019-05-16T05:12:06.291Z,1.90
2019-05-16T05:14:41.554Z,1.43
2019-05-16T05:17:14.869Z,1.80
2019-05-16T05:19:50.650Z,1.53
2019-05-16T05:22:23.439Z,1.63
2019-05-16T05:24:56.911Z,1.70
2019-05-16T05:27:30.478Z,1.50
2019-05-16T05:30:05.947Z,1.60
2019-05-16T05:32:41.236Z,3.03
2019-05-16T05:35:14.983Z,1.77
2019-05-16T05:37:50.581Z,2.67
2019-05-16T05:40:23.567Z,2.10
2019-05-16T05:42:57.001Z,1.60
2019-05-16T05:45:30.663Z,1.60
2019-05-16T05:48:04.223Z,1.40
2019-05-16T05:50:40.037Z,1.93
2019-05-16T05:53:12.803Z,2.23
2019-05-16T05:55:46.228Z,2.07
2019-05-16T05:58:20.666Z,1.73
2019-05-16T06:00:54.323Z,1.60
2019-05-16T06:03:27.750Z,1.60
2019-05-16T06:06:01.288Z,1.33
2019-05-16T06:08:34.744Z,2.33
2019-05-16T06:11:10.048Z,1.50
2019-05-16T06:13:43.533Z,1.40
2019-05-16T06:16:16.972Z,1.60
2019-05-16T06:18:50.506Z,1.37
2019-05-16T06:21:23.994Z,1.50
2019-05-16T06:23:59.809Z,1.80
2019-05-16T06:26:32.571Z,1.57
2019-05-16T06:29:05.995Z,1.30
2019-05-16T06:31:40.659Z,1.40
2019-05-16T06:34:15.423Z,1.70
2019-05-16T06:36:50.897Z,2.03
2019-05-16T06:39:24.227Z,1.40
2019-05-16T06:41:57.659Z,1.10
2019-05-16T06:44:31.115Z,1.50
2019-05-16T06:47:16.855Z,1.40
2019-05-16T06:49:40.266Z,1.20
2019-05-16T06:52:14.044Z,1.30
2019-05-16T06:54:49.948Z,1.50
2019-05-16T06:57:22.604Z,1.33
2019-05-16T06:59:56.021Z,1.50
2019-05-16T07:02:33.650Z,1.50
2019-05-16T07:05:05.944Z,1.60
2019-05-16T07:07:40.402Z,1.40
2019-05-16T07:10:14.447Z,1.37
2019-05-16T07:12:50.169Z,1.60
2019-05-16T07:15:23.027Z,1.60
2019-05-16T07:17:56.594Z,1.10
2019-05-16T07:20:30.248Z,1.10
2019-05-16T07:23:04.080Z,1.53
2019-05-16T07:25:37.527Z,1.70
2019-05-16T07:28:10.956Z,1.40
2019-05-16T07:30:45.975Z,1.40
2019-05-16T07:33:21.232Z,1.57
2019-05-16T07:35:54.558Z,1.37
2019-05-16T07:38:27.989Z,1.70
2019-05-16T07:41:01.409Z,1.73
2019-05-16T07:43:34.844Z,1.47
2019-05-16T07:46:10.956Z,1.47
2019-05-16T07:48:43.423Z,1.50
2019-05-16T07:51:16.888Z,1.47
2019-05-16T07:53:50.698Z,1.60
2019-05-16T07:56:24.176Z,1.57
2019-05-16T07:58:57.583Z,1.20
2019-05-16T08:01:31.054Z,1.67
2019-05-16T08:04:04.509Z,1.50
2019-05-16T08:06:40.504Z,1.90
2019-05-16T08:09:13.195Z,1.80
2019-05-16T08:11:46.689Z,2.00
2019-05-16T08:14:21.333Z,2.20
2019-05-16T08:16:55.136Z,1.50
2019-05-16T08:19:30.559Z,2.03
2019-05-16T08:22:03.715Z,1.50
2019-05-16T08:24:37.128Z,1.77
2019-05-16T08:27:12.175Z,1.70
2019-05-16T08:29:46.333Z,1.60
2019-05-16T08:32:22.954Z,2.00
2019-05-16T08:34:55.165Z,1.80
2019-05-16T08:37:38.439Z,1.53
2019-05-16T08:40:06.739Z,1.50
2019-05-16T08:42:41.717Z,1.57
2019-05-16T08:45:15.960Z,1.70
2019-05-16T08:47:52.516Z,1.90
2019-05-16T08:50:24.756Z,2.90
2019-05-16T08:53:02.555Z,1.70
2019-05-16T08:55:33.323Z,1.63
2019-05-16T08:58:06.816Z,1.30
2019-05-16T09:00:41.994Z,1.60
2019-05-16T09:03:15.383Z,1.60
2019-05-16T09:05:53.030Z,1.37
2019-05-16T09:08:24.144Z,1.57
2019-05-16T09:11:02.106Z,1.60
2019-05-16T09:13:32.743Z,1.77
2019-05-16T09:16:07.701Z,1.97
2019-05-16T09:18:45.852Z,1.70
2019-05-16T09:21:18.250Z,2.13
2019-05-16T09:23:51.871Z,2.10
2019-05-16T09:26:27.644Z,1.70
2019-05-16T09:29:00.437Z,1.77
2019-05-16T09:31:33.855Z,1.60
2019-05-16T09:34:07.689Z,2.00
2019-05-16T09:36:41.370Z,4.13
2019-05-16T09:39:16.954Z,7.80
2019-05-16T09:41:54.891Z,10.20
2019-05-16T09:44:27.250Z,5.57
2019-05-16T09:47:00.423Z,11.60
2019-05-16T09:49:33.860Z,2.87
2019-05-16T09:52:07.604Z,1.90
2019-05-16T09:54:41.188Z,3.73
2019-05-16T09:57:17.270Z,3.07
2019-05-16T09:59:49.763Z,2.87
2019-05-16T10:02:23.190Z,3.13
2019-05-16T10:04:58.035Z,12.97
2019-05-16T10:07:31.937Z,3.47
2019-05-16T10:10:07.374Z,2.30
2019-05-16T10:12:41.032Z,8.43
2019-05-16T10:15:17.462Z,18.57
2019-05-16T10:17:50.551Z,15.67
2019-05-16T10:20:23.981Z,3.63
2019-05-16T10:22:58.083Z,3.17
2019-05-16T10:25:31.752Z,2.40
2019-05-16T10:28:05.180Z,2.23
2019-05-16T10:30:38.591Z,2.23
2019-05-16T10:33:12.019Z,2.17
2019-05-16T10:35:48.025Z,1.80
2019-05-16T10:38:20.662Z,1.80
2019-05-16T10:40:56.470Z,2.20
2019-05-16T10:43:29.259Z,2.10
2019-05-16T10:46:02.698Z,1.90
2019-05-16T10:48:37.635Z,2.10
2019-05-16T10:51:11.470Z,2.20
2019-05-16T10:54:02.338Z,2.20
2019-05-16T10:56:20.035Z,2.00
2019-05-16T10:59:34.934Z,1.90
2019-05-16T11:01:31.330Z,2.03
2019-05-16T11:04:03.780Z,2.20
2019-05-16T11:06:37.363Z,1.90
2019-05-16T11:09:11.001Z,2.37
2019-05-16T11:11:44.407Z,2.37
2019-05-16T11:14:17.855Z,2.07
2019-05-16T11:16:51.264Z,2.33
2019-05-16T11:19:25.604Z,2.37
2019-05-16T11:21:59.834Z,2.20
2019-05-16T11:24:33.301Z,2.00
2019-05-16T11:27:07.526Z,1.90
2019-05-16T11:29:41.276Z,2.30
2019-05-16T11:32:14.728Z,2.97
2019-05-16T11:34:48.167Z,23.00
2019-05-16T11:37:21.642Z,17.40
2019-05-16T11:39:57.071Z,31.00
2019-05-16T11:42:30.265Z,15.53
2019-05-16T11:45:09.339Z,6.43
2019-05-16T11:47:40.707Z,7.70
2019-05-16T11:50:17.322Z,5.23
2019-05-16T11:52:49.811Z,2.90
2019-05-16T11:55:23.328Z,3.40
2019-05-16T11:57:56.945Z,2.70
2019-05-16T12:00:30.839Z,2.67
2019-05-16T12:03:04.540Z,3.10
2019-05-16T12:05:38.000Z,3.20
2019-05-16T12:08:11.481Z,2.53
2019-05-16T12:10:46.928Z,9.67
2019-05-16T12:13:27.476Z,3.47
2019-05-16T12:15:56.564Z,5.10
2019-05-16T12:18:30.447Z,3.80
2019-05-16T12:21:03.888Z,2.57
2019-05-16T12:23:37.643Z,2.80
2019-05-16T12:26:11.305Z,2.97
2019-05-16T12:28:44.715Z,3.17
2019-05-16T12:31:18.160Z,3.10
2019-05-16T12:33:51.605Z,3.10
2019-05-16T12:36:26.774Z,7.37
2019-05-16T12:39:00.537Z,39.97
2019-05-16T12:41:33.991Z,10.10
2019-05-16T12:44:07.666Z,4.60
2019-05-16T12:46:41.220Z,2.90
2019-05-16T12:49:14.635Z,3.07
2019-05-16T12:51:48.108Z,2.87
2019-05-16T12:54:21.791Z,3.60
2019-05-16T12:56:58.120Z,4.70
2019-05-16T12:59:30.383Z,3.70
2019-05-16T13:02:06.976Z,4.60
2019-05-16T13:04:38.992Z,3.40
2019-05-16T13:07:12.453Z,3.40
2019-05-16T13:09:46.658Z,3.20
2019-05-16T13:12:21.011Z,3.47
2019-05-16T13:14:54.451Z,3.20
2019-05-16T13:17:27.858Z,3.27
2019-05-16T13:20:01.808Z,3.20
2019-05-16T13:22:38.055Z,3.17
2019-05-16T13:25:11.082Z,3.50
2019-05-16T13:27:44.523Z,3.53
2019-05-16T13:30:19.493Z,3.13
2019-05-16T13:32:52.908Z,3.60
2019-05-16T13:35:27.148Z,3.27
2019-05-16T13:38:00.956Z,3.23
2019-05-16T13:40:34.408Z,2.77
2019-05-16T13:43:10.108Z,2.90
2019-05-16T13:45:43.728Z,3.43
2019-05-16T13:48:17.401Z,3.53
2019-05-16T13:50:51.160Z,3.27
2019-05-16T13:53:26.940Z,3.00
2019-05-16T13:56:00.092Z,3.33
2019-05-16T13:58:33.516Z,2.70
2019-05-16T14:01:07.928Z,3.80
2019-05-16T14:03:41.672Z,4.93
2019-05-16T14:06:18.092Z,4.13
2019-05-16T14:08:50.284Z,7.03
2019-05-16T14:11:23.956Z,7.53
2019-05-16T14:13:57.601Z,4.87
2019-05-16T14:16:31.145Z,3.50
2019-05-16T14:19:04.722Z,6.00
2019-05-16T14:21:38.156Z,3.40
2019-05-16T14:24:11.575Z,4.00
2019-05-16T14:26:46.481Z,4.17
2019-05-16T14:29:20.096Z,3.70
2019-05-16T14:31:53.540Z,5.20
2019-05-16T14:34:27.870Z,3.13
2019-05-16T14:37:01.467Z,2.97
2019-05-16T14:39:38.413Z,2.80
2019-05-16T14:42:10.036Z,2.77
2019-05-16T14:45:02.943Z,2.93
2019-05-16T14:47:18.938Z,3.07
2019-05-16T14:49:52.414Z,2.90
2019-05-16T14:52:27.084Z,2.70
2019-05-16T14:55:00.719Z,2.77
2019-05-16T14:57:36.796Z,3.13
2019-05-16T15:00:10.691Z,3.17
2019-05-16T15:02:44.123Z,3.30
2019-05-16T15:05:18.086Z,3.20
2019-05-16T15:07:51.518Z,3.30
2019-05-16T15:10:26.908Z,3.10
2019-05-16T15:13:00.079Z,3.30
2019-05-16T15:15:33.504Z,3.03
2019-05-16T15:18:08.107Z,2.80
2019-05-16T15:20:41.891Z,2.87
2019-05-16T15:23:17.545Z,2.90
2019-05-16T15:25:50.533Z,3.07
2019-05-16T15:28:29.450Z,2.73
2019-05-16T15:30:59.101Z,3.40
2019-05-16T15:33:32.532Z,3.10
2019-05-16T15:36:08.598Z,3.10
2019-05-16T15:38:41.775Z,3.00
2019-05-16T15:41:17.146Z,3.30
2019-05-16T15:43:50.338Z,3.43
2019-05-16T15:46:26.443Z,3.10
2019-05-16T15:49:00.383Z,3.30
2019-05-16T15:51:36.850Z,3.80
2019-05-16T15:54:12.803Z,3.27
2019-05-16T15:56:48.881Z,3.70
2019-05-16T15:59:22.321Z,3.70
2019-05-16T16:01:55.804Z,3.40
2019-05-16T16:04:29.224Z,3.80
2019-05-16T16:07:02.660Z,3.33
2019-05-16T16:09:37.868Z,3.37
2019-05-16T16:12:11.239Z,3.20
2019-05-16T16:14:46.720Z,3.70
2019-05-16T16:17:19.896Z,3.10
2019-05-16T16:19:53.326Z,3.40
2019-05-16T16:22:26.965Z,3.47
2019-05-16T16:25:00.654Z,3.70
2019-05-16T16:27:34.140Z,3.53
2019-05-16T16:30:07.689Z,3.40
2019-05-16T16:32:41.229Z,3.87
2019-05-16T16:35:17.182Z,3.47
2019-05-16T16:37:50.043Z,3.33
2019-05-16T16:40:23.631Z,3.60
2019-05-16T16:42:57.061Z,3.53
2019-05-16T16:45:30.472Z,3.73
2019-05-16T16:48:03.932Z,4.07
2019-05-16T16:50:37.427Z,3.83
2019-05-16T16:53:10.855Z,3.97
2019-05-16T16:55:44.279Z,4.03
2019-05-16T16:58:17.782Z,4.70
2019-05-16T17:00:51.404Z,4.60
2019-05-16T17:03:27.098Z,4.50
2019-05-16T17:05:59.971Z,5.30
2019-05-16T17:08:33.423Z,4.30
2019-05-16T17:11:07.657Z,4.50
2019-05-16T17:13:41.595Z,3.63
2019-05-16T17:16:25.288Z,4.10
2019-05-16T17:18:50.179Z,4.37
2019-05-16T17:21:23.579Z,4.20
2019-05-16T17:23:57.013Z,3.47
2019-05-16T17:26:30.464Z,4.47
2019-05-16T17:29:06.387Z,3.93
2019-05-16T17:31:39.061Z,3.57
2019-05-16T17:34:12.488Z,3.57
2019-05-16T17:36:46.634Z,3.50
2019-05-16T17:39:20.352Z,3.97
2019-05-16T17:41:54.967Z,4.00
2019-05-16T17:44:29.375Z,3.40
2019-05-16T17:47:02.792Z,3.23
2019-05-16T17:49:37.163Z,3.30
2019-05-16T17:52:12.892Z,3.77
2019-05-16T17:54:46.315Z,3.17
2019-05-16T17:57:19.727Z,3.53
2019-05-16T17:59:53.171Z,3.47
2019-05-16T18:02:26.769Z,3.73
2019-05-16T18:05:01.608Z,4.07
2019-05-16T18:07:36.796Z,4.80
2019-05-16T18:10:10.824Z,3.60
2019-05-16T18:12:44.238Z,3.50
2019-05-16T18:15:22.363Z,3.80
2019-05-16T18:17:56.126Z,3.53
2019-05-16T18:20:29.655Z,4.20
2019-05-16T18:23:03.059Z,4.60
2019-05-16T18:25:36.789Z,4.00
2019-05-16T18:28:10.444Z,3.83
2019-05-16T18:30:43.881Z,3.90
2019-05-16T18:33:17.307Z,3.90
2019-05-16T18:35:50.735Z,4.10
2019-05-16T18:38:26.076Z,4.10
2019-05-16T18:40:59.292Z,3.90
2019-05-16T18:43:32.716Z,3.73
2019-05-16T18:46:07.400Z,4.30
2019-05-16T18:48:42.231Z,4.13
2019-05-16T18:51:15.640Z,3.97
2019-05-16T18:53:49.119Z,3.97
2019-05-16T18:56:22.532Z,4.07
2019-05-16T18:58:57.255Z,4.30
2019-05-16T19:01:30.958Z,4.50
2019-05-16T19:04:06.846Z,4.47
2019-05-16T19:06:40.124Z,4.60
2019-05-16T19:09:13.548Z,4.90
2019-05-16T19:11:46.959Z,5.20
2019-05-16T19:14:20.403Z,4.47
2019-05-16T19:16:53.831Z,4.57
2019-05-16T19:19:28.316Z,4.30
2019-05-16T19:22:01.923Z,4.00
2019-05-16T19:24:35.344Z,3.90
2019-05-16T19:27:08.771Z,4.00
2019-05-16T19:29:42.206Z,4.10
2019-05-16T19:32:17.197Z,4.23
2019-05-16T19:34:50.831Z,3.70
2019-05-16T19:37:24.323Z,3.97
2019-05-16T19:39:57.855Z,4.33
2019-05-16T19:42:31.287Z,4.23
2019-05-16T19:45:07.610Z,4.80
2019-05-16T19:47:41.441Z,3.97
2019-05-16T19:50:16.076Z,4.10
2019-05-16T19:52:49.487Z,3.93
2019-05-16T19:55:22.919Z,4.10
2019-05-16T19:57:57.217Z,3.80
2019-05-16T20:00:31.386Z,3.80
2019-05-16T20:03:04.876Z,4.50
2019-05-16T20:05:38.314Z,4.30
2019-05-16T20:08:11.725Z,4.50
2019-05-16T20:10:45.151Z,4.30
2019-05-16T20:13:18.565Z,4.67
2019-05-16T20:15:51.994Z,4.53
2019-05-16T20:18:27.315Z,4.50
2019-05-16T20:21:00.563Z,4.63
2019-05-16T20:23:36.828Z,4.63
2019-05-16T20:26:09.337Z,4.63
2019-05-16T20:28:42.752Z,5.17
2019-05-16T20:31:17.038Z,5.17
2019-05-16T20:33:50.683Z,4.80
2019-05-16T20:36:26.321Z,4.70
2019-05-16T20:38:59.376Z,4.90
2019-05-16T20:41:32.822Z,4.70
2019-05-16T20:44:06.691Z,4.83
2019-05-16T20:46:40.209Z,4.80
2019-05-16T20:49:13.622Z,5.60
2019-05-16T20:51:49.955Z,4.87
2019-05-16T20:54:22.184Z,5.40
2019-05-16T20:56:57.386Z,5.13
2019-05-16T20:59:31.002Z,5.60
2019-05-16T21:02:06.707Z,5.90
2019-05-16T21:04:39.655Z,6.00
2019-05-16T21:07:13.167Z,5.70
2019-05-16T21:09:46.593Z,5.90
2019-05-16T21:12:20.018Z,6.03
2019-05-16T21:14:53.452Z,5.97
2019-05-16T21:17:26.871Z,6.37
2019-05-16T21:20:00.299Z,6.07
2019-05-16T21:22:33.711Z,5.87
2019-05-16T21:25:07.885Z,6.07
2019-05-16T21:27:41.299Z,5.77
2019-05-16T21:30:16.838Z,6.20
2019-05-16T21:32:50.220Z,7.13
2019-05-16T21:35:23.719Z,6.30
2019-05-16T21:37:57.139Z,6.63
2019-05-16T21:40:31.396Z,6.80
2019-05-16T21:43:07.259Z,6.17
2019-05-16T21:45:40.122Z,6.27
2019-05-16T21:48:13.547Z,6.60
2019-05-16T21:50:47.103Z,6.47
2019-05-16T21:53:20.519Z,6.40
2019-05-16T21:55:56.259Z,6.23
2019-05-16T21:58:29.501Z,6.70
2019-05-16T22:01:06.594Z,5.70
2019-05-16T22:03:40.198Z,6.90
2019-05-16T22:06:13.683Z,6.63
2019-05-16T22:08:47.180Z,7.77
2019-05-16T22:11:20.601Z,6.20
2019-05-16T22:13:54.015Z,6.60
2019-05-16T22:16:27.945Z,6.60
2019-05-16T22:19:01.499Z,6.23
2019-05-16T22:21:34.929Z,6.50
2019-05-16T22:24:08.348Z,6.50
2019-05-16T22:26:41.843Z,6.53
2019-05-16T22:29:17.024Z,6.70
2019-05-16T22:31:50.487Z,6.70
2019-05-16T22:34:26.345Z,6.93
2019-05-16T22:36:59.051Z,6.33
2019-05-16T22:39:33.008Z,6.77
2019-05-16T22:42:09.112Z,7.17
2019-05-16T22:44:41.634Z,6.70
2019-05-16T22:47:17.164Z,7.10
2019-05-16T22:49:50.202Z,7.60
2019-05-16T22:52:23.632Z,6.83
2019-05-16T22:54:57.063Z,6.80
2019-05-16T22:57:30.476Z,7.63
2019-05-16T23:00:10.807Z,7.07
2019-05-16T23:02:44.223Z,7.30
2019-05-16T23:05:17.644Z,7.63
2019-05-16T23:08:02.128Z,7.17
2019-05-16T23:10:28.100Z,7.90
2019-05-16T23:13:01.373Z,7.23
2019-05-16T23:15:34.777Z,7.60
2019-05-16T23:18:08.203Z,8.23
2019-05-16T23:20:41.622Z,7.70
2019-05-16T23:23:17.228Z,7.97
2019-05-16T23:25:50.214Z,8.07
2019-05-16T23:28:23.635Z,7.87
2019-05-16T23:30:57.738Z,7.90
2019-05-16T23:33:31.296Z,7.70
2019-05-16T23:36:06.833Z,8.07
2019-05-16T23:38:39.940Z,8.00
2019-05-16T23:41:13.424Z,7.90
2019-05-16T23:43:47.393Z,8.13
2019-05-16T23:46:21.147Z,8.70
2019-05-16T23:48:56.498Z,8.37
2019-05-16T23:51:29.724Z,8.13
2019-05-16T23:54:03.167Z,8.20
2019-05-16T23:56:37.238Z,9.73
2019-05-16T23:59:10.985Z,8.50
